Time;durP1;ratioP1;P1;durP2;ratioP2;P2;SDS_P1;SDS_P2;PMS_P1;PMS_P2;Temp;Humidity;BMP_temperature;BMP_pressure;BME280_temperature;BME280_humidity;BME280_pressure;Samples;Min_cycle;Max_cycle;Signal;HPM_P1;HPM_P2
2023/08/15 00:01:38;;;;;;;6.93;5.20;;;16.70;99.90;;;;;;5071501;28;20021;-78
2023/08/15 00:04:04;;;;;;;6.40;5.32;;;16.70;99.90;;;;;;5072216;28;20025;-77
2023/08/15 00:06:30;;;;;;;6.00;4.47;;;16.70;99.90;;;;;;5072254;28;20111;-78
2023/08/15 00:08:55;;;;;;;6.88;4.68;;;16.60;99.90;;;;;;5071135;28;20028;-78
2023/08/15 00:11:22;;;;;;;5.70;5.20;;;16.60;99.90;;;;;;5072458;28;20113;-79
2023/08/15 00:13:48;;;;;;;8.00;5.35;;;16.70;99.90;;;;;;5071339;28;20070;-77
2023/08/15 00:16:14;;;;;;;9.02;5.53;;;16.60;99.90;;;;;;5072187;28;20028;-77
2023/08/15 00:18:39;;;;;;;6.00;4.95;;;16.60;99.90;;;;;;5071728;28;20123;-78
2023/08/15 00:21:05;;;;;;;7.38;5.00;;;16.60;99.90;;;;;;5071694;28;20048;-78
2023/08/15 00:23:31;;;;;;;9.68;5.10;;;16.70;99.90;;;;;;5072986;28;20032;-78
2023/08/15 00:25:56;;;;;;;6.20;4.68;;;16.60;99.90;;;;;;5071582;28;20032;-78
2023/08/15 00:28:22;;;;;;;5.60;5.07;;;16.60;99.90;;;;;;5075683;28;20021;-78
2023/08/15 00:30:49;;;;;;;5.32;4.80;;;16.60;99.90;;;;;;5075311;28;20497;-77
2023/08/15 00:33:14;;;;;;;6.85;5.00;;;16.60;99.90;;;;;;5075180;28;20485;-78
2023/08/15 00:35:42;;;;;;;6.32;5.60;;;16.60;99.90;;;;;;5075404;28;20119;-78
2023/08/15 00:38:08;;;;;;;5.40;4.78;;;16.60;99.90;;;;;;5076752;28;20032;-78
2023/08/15 00:40:34;;;;;;;6.00;4.55;;;16.60;99.90;;;;;;5076936;28;20025;-78
2023/08/15 00:42:59;;;;;;;6.07;5.15;;;16.60;99.90;;;;;;5074520;28;20045;-77
2023/08/15 00:45:26;;;;;;;5.90;5.25;;;16.60;99.90;;;;;;5074976;28;20486;-79
2023/08/15 00:47:52;;;;;;;7.63;5.30;;;16.50;99.90;;;;;;5074790;28;20070;-79
2023/08/15 00:50:17;;;;;;;6.30;4.80;;;16.40;99.90;;;;;;5075941;28;20044;-79
2023/08/15 00:52:43;;;;;;;5.25;4.80;;;16.50;99.90;;;;;;5074701;28;20115;-78
2023/08/15 00:55:09;;;;;;;7.25;4.90;;;16.50;99.90;;;;;;5074562;28;20502;-78
2023/08/15 00:57:36;;;;;;;5.70;5.10;;;16.60;99.90;;;;;;5075681;28;20406;-78
2023/08/15 01:00:01;;;;;;;5.78;5.15;;;16.50;99.90;;;;;;5074785;28;20082;-77
2023/08/15 01:02:28;;;;;;;6.35;5.63;;;16.40;99.90;;;;;;5074882;28;20025;-78
2023/08/15 01:04:53;;;;;;;5.60;5.10;;;16.40;99.90;;;;;;5074736;28;20024;-77
2023/08/15 01:07:19;;;;;;;6.63;5.35;;;16.40;99.90;;;;;;5074282;28;20131;-78
2023/08/15 01:09:45;;;;;;;6.63;5.18;;;16.30;99.90;;;;;;5075155;28;20461;-77
2023/08/15 01:13:02;;;;;;;6.38;5.68;;;16.30;99.90;;;;;;5074831;28;20157;-78
2023/08/15 01:15:31;;;;;;;9.73;5.07;;;16.30;99.90;;;;;;5049533;28;20029;-77
2023/08/15 01:18:16;;;;;;;5.88;5.28;;;16.30;99.90;;;;;;5074553;28;20029;-78
2023/08/15 01:20:42;;;;;;;5.83;5.00;;;16.30;99.90;;;;;;5075999;28;20108;-78
2023/08/15 01:23:08;;;;;;;7.75;5.13;;;16.20;99.90;;;;;;5076581;28;20056;-78
2023/08/15 01:25:42;;;;;;;6.22;5.55;;;16.30;99.90;;;;;;5075085;28;20024;-78
2023/08/15 01:28:15;;;;;;;9.38;5.05;;;16.30;99.90;;;;;;5076084;28;20436;-78
2023/08/15 01:30:58;;;;;;;6.57;5.65;;;16.30;99.90;;;;;;5074535;28;20023;-77
2023/08/15 01:33:38;;;;;;;5.88;5.25;;;16.30;99.90;;;;;;5074941;28;20024;-77
2023/08/15 01:36:14;;;;;;;5.78;4.32;;;16.30;99.90;;;;;;5076308;28;20036;-78
2023/08/15 01:38:45;;;;;;;10.07;5.40;;;16.30;99.90;;;;;;5073587;28;20024;-77
2023/08/15 01:41:18;;;;;;;5.63;5.00;;;16.30;99.90;;;;;;5075080;28;20486;-77
2023/08/15 01:43:44;;;;;;;4.57;4.15;;;16.40;99.90;;;;;;5075188;28;20025;-77
2023/08/15 01:46:12;;;;;;;6.22;5.13;;;16.30;99.90;;;;;;5076744;28;20463;-79
2023/08/15 01:48:41;;;;;;;7.57;5.28;;;16.20;99.90;;;;;;5074857;28;20394;-77
2023/08/15 01:51:08;;;;;;;4.97;4.30;;;16.20;99.90;;;;;;5076669;28;20095;-77
2023/08/15 01:53:35;;;;;;;6.15;5.43;;;16.20;99.90;;;;;;5077160;28;20158;-81
2023/08/15 01:56:01;;;;;;;9.90;5.25;;;16.10;99.90;;;;;;5075110;28;20024;-78
2023/08/15 01:58:27;;;;;;;4.95;4.53;;;16.10;99.90;;;;;;5077423;28;20055;-80
2023/08/15 02:00:53;;;;;;;5.28;4.78;;;16.10;99.90;;;;;;5076914;28;20028;-79
2023/08/15 02:03:18;;;;;;;7.28;5.15;;;16.00;99.90;;;;;;5075901;28;20028;-78
2023/08/15 02:05:44;;;;;;;7.55;4.97;;;16.00;99.90;;;;;;5075830;28;20024;-78
2023/08/15 02:08:09;;;;;;;5.45;4.88;;;16.00;99.90;;;;;;5077731;28;20021;-79
2023/08/15 02:10:35;;;;;;;7.68;5.18;;;16.00;99.90;;;;;;5077155;28;20073;-78
2023/08/15 02:13:00;;;;;;;5.43;4.45;;;15.90;99.90;;;;;;5075915;28;20020;-78
2023/08/15 02:15:26;;;;;;;6.22;4.90;;;16.00;99.90;;;;;;5077915;28;20036;-78
2023/08/15 02:17:52;;;;;;;6.65;4.95;;;16.00;99.90;;;;;;5077837;28;20029;-80
2023/08/15 02:20:17;;;;;;;9.20;4.22;;;16.10;99.90;;;;;;5078008;28;20032;-80
2023/08/15 02:22:44;;;;;;;4.70;4.30;;;16.00;99.90;;;;;;5076754;28;20028;-80
2023/08/15 02:25:09;;;;;;;4.78;4.20;;;16.00;99.90;;;;;;5076357;28;20052;-78
2023/08/15 02:27:35;;;;;;;6.43;4.50;;;15.90;99.90;;;;;;5078273;28;20387;-79
2023/08/15 02:30:01;;;;;;;5.85;4.47;;;15.90;99.90;;;;;;5078433;28;20032;-78
2023/08/15 02:32:26;;;;;;;6.22;4.55;;;15.80;99.90;;;;;;5078551;28;20059;-81
2023/08/15 02:34:52;;;;;;;7.30;5.20;;;15.90;99.90;;;;;;5077150;28;20047;-78
2023/08/15 02:37:18;;;;;;;4.72;4.20;;;15.90;99.90;;;;;;5076969;28;20465;-78
2023/08/15 02:39:43;;;;;;;4.90;4.35;;;15.80;99.90;;;;;;5078974;28;20478;-78
2023/08/15 02:42:09;;;;;;;8.80;4.65;;;15.80;99.90;;;;;;5076411;28;20028;-81
2023/08/15 02:44:34;;;;;;;8.27;4.40;;;15.70;99.90;;;;;;5079398;28;20024;-78
2023/08/15 02:47:00;;;;;;;8.63;5.20;;;15.70;99.90;;;;;;5076811;28;20020;-79
2023/08/15 02:49:26;;;;;;;6.22;4.22;;;15.70;99.90;;;;;;5076797;28;20029;-79
2023/08/15 02:51:51;;;;;;;8.20;4.97;;;15.70;99.90;;;;;;5076411;28;20491;-81
2023/08/15 02:54:17;;;;;;;5.00;4.07;;;15.70;99.90;;;;;;5077449;28;20036;-79
2023/08/15 02:56:43;;;;;;;6.78;5.45;;;15.70;99.90;;;;;;5078678;28;20028;-79
2023/08/15 02:59:08;;;;;;;5.47;4.97;;;15.80;99.90;;;;;;5079206;28;20028;-82
2023/08/15 03:01:34;;;;;;;5.70;4.70;;;15.70;99.90;;;;;;5079384;28;20069;-81
2023/08/15 03:03:59;;;;;;;5.05;4.55;;;15.70;99.90;;;;;;5079303;28;20505;-77
2023/08/15 03:06:25;;;;;;;5.43;4.15;;;15.60;99.90;;;;;;5078030;28;20125;-80
2023/08/15 03:08:51;;;;;;;4.57;4.15;;;15.50;99.90;;;;;;5079746;28;20052;-79
2023/08/15 03:11:16;;;;;;;6.22;4.43;;;15.60;99.90;;;;;;5078669;28;20022;-82
2023/08/15 03:13:42;;;;;;;4.82;4.13;;;15.60;99.90;;;;;;5079134;28;20061;-78
2023/08/15 03:16:08;;;;;;;12.07;4.72;;;15.60;99.90;;;;;;5080324;28;20024;-82
2023/08/15 03:18:33;;;;;;;5.03;4.10;;;15.50;99.90;;;;;;5078774;28;20047;-82
2023/08/15 03:21:00;;;;;;;7.07;4.45;;;15.50;99.90;;;;;;5079714;28;20509;-80
2023/08/15 03:23:26;;;;;;;5.18;4.65;;;15.50;99.90;;;;;;5081341;28;20031;-79
2023/08/15 03:26:00;;;;;;;10.82;4.90;;;15.40;99.90;;;;;;5080146;28;20016;-80
2023/08/15 03:28:26;;;;;;;7.30;4.85;;;15.40;99.90;;;;;;5079267;28;20024;-83
2023/08/15 03:30:52;;;;;;;8.57;5.57;;;15.40;99.90;;;;;;5078831;28;20514;-80
2023/08/15 03:33:18;;;;;;;5.95;5.00;;;15.40;99.90;;;;;;5081285;28;20115;-80
2023/08/15 03:35:48;;;;;;;5.20;4.70;;;15.50;99.90;;;;;;5081452;28;20032;-82
2023/08/15 03:38:21;;;;;;;8.40;4.95;;;15.40;99.90;;;;;;5082427;28;20078;-82
2023/08/15 03:40:59;;;;;;;10.45;4.80;;;15.30;99.90;;;;;;5082920;28;20051;-82
2023/08/15 03:43:24;;;;;;;7.20;5.18;;;15.30;99.90;;;;;;5081314;28;20078;-80
2023/08/15 03:45:50;;;;;;;6.05;5.30;;;15.30;99.90;;;;;;5071789;28;20487;-79
2023/08/15 03:48:15;;;;;;;5.50;4.97;;;15.20;99.90;;;;;;5073193;28;20027;-78
2023/08/15 03:50:41;;;;;;;5.57;5.07;;;15.30;99.90;;;;;;5071782;28;20428;-77
2023/08/15 03:53:06;;;;;;;6.05;4.82;;;15.30;99.90;;;;;;5072063;28;20024;-77
2023/08/15 03:55:32;;;;;;;6.38;5.38;;;15.30;99.90;;;;;;5071943;28;20469;-78
2023/08/15 03:57:58;;;;;;;6.93;5.57;;;15.30;99.90;;;;;;5073475;28;20028;-79
2023/08/15 04:00:24;;;;;;;5.00;4.47;;;15.40;99.90;;;;;;5073031;28;20031;-78
2023/08/15 04:02:50;;;;;;;8.88;5.55;;;15.40;99.90;;;;;;5074834;28;20397;-77
2023/08/15 04:05:17;;;;;;;5.55;5.05;;;15.40;99.90;;;;;;5077391;28;20036;-78
2023/08/15 04:07:44;;;;;;;8.40;5.15;;;15.40;99.90;;;;;;5075934;28;20031;-78
2023/08/15 04:10:12;;;;;;;6.50;5.05;;;15.40;99.90;;;;;;5076100;28;20016;-78
2023/08/15 04:12:37;;;;;;;4.80;4.40;;;15.40;99.90;;;;;;5077465;28;20028;-78
2023/08/15 04:15:04;;;;;;;5.57;4.53;;;15.40;99.90;;;;;;5077437;28;20025;-78
2023/08/15 04:17:30;;;;;;;5.70;5.07;;;15.40;99.90;;;;;;5077010;28;20028;-78
2023/08/15 04:19:56;;;;;;;5.18;4.68;;;15.30;99.90;;;;;;5077892;28;20028;-78
2023/08/15 04:22:21;;;;;;;5.53;4.93;;;15.40;99.90;;;;;;5077461;28;20478;-78
2023/08/15 04:24:47;;;;;;;5.55;4.53;;;15.30;99.90;;;;;;5075945;28;20055;-79
2023/08/15 04:27:13;;;;;;;6.57;5.90;;;15.40;99.90;;;;;;5076871;28;20032;-78
2023/08/15 04:29:38;;;;;;;10.73;6.05;;;15.40;99.90;;;;;;5075864;28;20394;-78
2023/08/15 04:32:04;;;;;;;6.00;5.35;;;15.40;99.90;;;;;;5075595;28;20025;-78
2023/08/15 04:34:30;;;;;;;12.90;6.10;;;15.50;99.90;;;;;;5075660;28;20094;-78
2023/08/15 04:36:55;;;;;;;6.38;5.70;;;15.50;99.90;;;;;;5074885;28;20135;-77
2023/08/15 04:39:21;;;;;;;8.18;6.10;;;15.70;99.90;;;;;;5075656;28;20025;-78
2023/08/15 04:41:47;;;;;;;6.32;5.72;;;15.70;99.90;;;;;;5075680;28;20059;-78
2023/08/15 04:44:13;;;;;;;6.47;5.75;;;15.70;99.90;;;;;;5075580;28;20070;-78
2023/08/15 04:46:39;;;;;;;7.32;6.10;;;15.80;99.90;;;;;;5076290;28;20021;-78
2023/08/15 04:49:05;;;;;;;12.32;6.43;;;15.90;99.90;;;;;;5075732;28;20478;-77
2023/08/15 04:51:30;;;;;;;7.07;6.30;;;15.90;99.90;;;;;;5079945;28;20016;-78
2023/08/15 04:53:56;;;;;;;6.47;5.53;;;16.00;99.90;;;;;;5082582;28;20454;-80
2023/08/15 04:56:22;;;;;;;8.05;5.68;;;16.00;99.90;;;;;;5080333;28;20487;-79
2023/08/15 04:58:48;;;;;;;7.10;5.68;;;16.10;99.90;;;;;;5081814;28;20017;-80
2023/08/15 05:01:14;;;;;;;7.50;5.85;;;16.10;99.90;;;;;;5080464;28;20042;-81
2023/08/15 05:03:39;;;;;;;6.65;6.00;;;16.20;99.90;;;;;;5078477;28;20032;-80
2023/08/15 05:06:05;;;;;;;6.38;5.70;;;16.30;99.90;;;;;;5079898;28;20031;-79
2023/08/15 05:08:31;;;;;;;6.13;5.53;;;16.30;99.90;;;;;;5079358;28;20360;-79
2023/08/15 05:10:56;;;;;;;6.47;5.65;;;16.40;99.90;;;;;;5078788;28;20020;-78
2023/08/15 05:13:22;;;;;;;7.35;5.55;;;16.50;99.90;;;;;;5078450;28;20095;-80
2023/08/15 05:15:48;;;;;;;8.73;5.43;;;16.60;99.90;;;;;;5079736;28;20021;-79
2023/08/15 05:18:15;;;;;;;5.90;5.30;;;16.70;99.90;;;;;;5077911;28;20037;-78
2023/08/15 05:20:42;;;;;;;5.90;5.30;;;16.80;99.90;;;;;;5075210;28;20561;-78
2023/08/15 05:23:07;;;;;;;6.25;5.57;;;16.80;99.90;;;;;;5073948;28;20056;-79
2023/08/15 05:25:33;;;;;;;7.03;6.30;;;18.30;99.90;;;;;;5075124;28;20068;-78
2023/08/15 05:28:05;;;;;;;6.63;5.75;;;19.30;99.90;;;;;;5077450;28;20036;-77
2023/08/15 05:30:34;;;;;;;5.97;5.05;;;19.80;99.90;;;;;;5075815;28;20021;-78
2023/08/15 05:33:00;;;;;;;5.50;4.47;;;20.00;99.90;;;;;;5075499;28;20510;-78
2023/08/15 05:35:26;;;;;;;5.13;4.15;;;19.60;99.90;;;;;;5073195;28;20033;-79
2023/08/15 05:37:53;;;;;;;6.63;5.55;;;19.90;99.90;;;;;;5073190;28;20056;-79
2023/08/15 05:40:18;;;;;;;6.15;4.72;;;19.70;99.90;;;;;;5072916;28;20436;-79
2023/08/15 05:42:44;;;;;;;10.05;5.32;;;19.40;99.90;;;;;;5073230;28;20070;-78
2023/08/15 05:45:10;;;;;;;6.10;5.60;;;19.30;99.90;;;;;;5073365;28;20021;-79
2023/08/15 05:47:36;;;;;;;8.38;5.75;;;19.70;99.90;;;;;;5072861;28;20112;-79
2023/08/15 05:50:02;;;;;;;5.03;4.60;;;19.60;99.90;;;;;;5074023;28;20475;-79
2023/08/15 05:52:28;;;;;;;5.13;4.68;;;19.60;99.90;;;;;;5073022;28;20025;-78
2023/08/15 05:54:55;;;;;;;5.20;4.70;;;19.80;99.90;;;;;;5072806;28;20027;-78
2023/08/15 05:57:20;;;;;;;5.97;5.15;;;20.00;99.90;;;;;;5072757;28;20037;-78
2023/08/15 05:59:46;;;;;;;4.93;4.43;;;20.00;99.90;;;;;;5074159;28;20054;-79
2023/08/15 06:02:13;;;;;;;5.25;4.75;;;20.00;99.90;;;;;;5073817;28;20112;-79
2023/08/15 06:04:39;;;;;;;5.70;5.20;;;19.90;99.90;;;;;;5072708;28;20020;-79
2023/08/15 06:07:05;;;;;;;4.97;4.47;;;20.00;99.90;;;;;;5072388;28;20028;-77
2023/08/15 06:09:31;;;;;;;4.50;4.10;;;20.00;99.90;;;;;;5072896;28;20119;-79
2023/08/15 06:11:56;;;;;;;9.85;4.30;;;20.00;99.90;;;;;;5072913;28;20033;-79
2023/08/15 06:14:22;;;;;;;5.32;4.80;;;20.00;99.90;;;;;;5072699;28;20032;-78
2023/08/15 06:16:48;;;;;;;5.03;4.63;;;20.20;99.90;;;;;;5073625;28;20024;-81
2023/08/15 06:19:14;;;;;;;5.78;5.10;;;20.30;99.90;;;;;;5072670;28;20029;-79
2023/08/15 06:21:42;;;;;;;7.57;5.35;;;20.30;99.90;;;;;;5072700;28;20486;-79
2023/08/15 06:24:09;;;;;;;5.50;4.97;;;20.60;99.90;;;;;;5071915;28;20024;-80
2023/08/15 06:26:35;;;;;;;7.72;5.30;;;20.60;99.90;;;;;;5072318;28;20074;-79
2023/08/15 06:29:01;;;;;;;5.10;4.60;;;20.60;99.90;;;;;;5072331;28;20067;-79
2023/08/15 06:31:26;;;;;;;4.85;4.40;;;20.60;99.90;;;;;;5072503;28;20024;-80
2023/08/15 06:33:52;;;;;;;7.00;5.40;;;20.80;99.90;;;;;;5072238;28;20098;-80
2023/08/15 06:36:18;;;;;;;5.40;4.40;;;20.80;99.90;;;;;;5072023;28;20032;-80
2023/08/15 06:38:43;;;;;;;4.88;4.43;;;20.90;99.90;;;;;;5072246;28;20025;-79
2023/08/15 06:41:09;;;;;;;5.70;4.78;;;21.00;99.90;;;;;;5073796;28;20100;-80
2023/08/15 06:43:34;;;;;;;7.10;4.90;;;21.10;99.90;;;;;;5072837;28;20502;-81
2023/08/15 06:46:00;;;;;;;8.45;4.50;;;21.20;99.90;;;;;;5072248;28;20021;-80
2023/08/15 06:48:25;;;;;;;7.05;5.10;;;21.30;99.90;;;;;;5072341;28;20482;-80
2023/08/15 06:50:51;;;;;;;5.90;4.30;;;21.30;99.90;;;;;;5072226;28;20025;-78
2023/08/15 06:53:17;;;;;;;5.32;4.45;;;21.50;99.90;;;;;;5072920;28;20441;-79
2023/08/15 06:55:43;;;;;;;4.63;4.13;;;21.50;99.90;;;;;;5071201;28;20063;-79
2023/08/15 06:58:08;;;;;;;5.25;4.75;;;21.50;99.90;;;;;;5071312;28;20029;-77
2023/08/15 07:00:34;;;;;;;4.75;4.35;;;21.60;99.90;;;;;;5072065;28;20036;-77
2023/08/15 07:03:01;;;;;;;6.07;5.15;;;21.80;99.90;;;;;;5070898;28;20025;-77
2023/08/15 07:05:26;;;;;;;4.65;4.15;;;21.80;99.90;;;;;;5073424;28;20024;-76
2023/08/15 07:07:53;;;;;;;4.72;4.25;;;21.90;99.90;;;;;;5071613;28;20020;-77
2023/08/15 07:10:19;;;;;;;4.72;4.18;;;22.00;99.90;;;;;;5071673;28;20024;-77
2023/08/15 07:12:45;;;;;;;4.82;4.32;;;22.20;99.90;;;;;;5072949;28;20373;-77
2023/08/15 07:15:10;;;;;;;5.78;4.78;;;22.30;99.90;;;;;;5071628;28;20028;-78
2023/08/15 07:17:36;;;;;;;5.15;4.40;;;22.40;99.90;;;;;;5071381;28;20024;-77
2023/08/15 07:20:05;;;;;;;4.35;3.95;;;22.60;99.90;;;;;;5072943;28;20467;-77
2023/08/15 07:22:30;;;;;;;5.70;4.05;;;22.80;99.90;;;;;;5071311;28;20024;-79
2023/08/15 07:24:56;;;;;;;7.70;4.93;;;23.10;99.90;;;;;;5071282;28;20039;-78
2023/08/15 07:27:21;;;;;;;4.75;4.35;;;23.20;99.90;;;;;;5070893;28;20098;-77
2023/08/15 07:29:47;;;;;;;5.60;4.00;;;23.30;99.90;;;;;;5071113;28;20035;-77
2023/08/15 07:32:12;;;;;;;6.18;4.45;;;23.50;99.90;;;;;;5071226;28;20028;-80
2023/08/15 07:34:38;;;;;;;4.43;4.03;;;23.70;99.90;;;;;;5072391;28;20035;-79
2023/08/15 07:37:04;;;;;;;7.53;5.40;;;23.90;99.90;;;;;;5069521;28;20036;-77
2023/08/15 07:39:29;;;;;;;4.63;4.00;;;24.10;99.90;;;;;;5072133;28;20064;-77
2023/08/15 07:41:55;;;;;;;4.75;4.35;;;24.20;99.90;;;;;;5070756;28;20025;-80
2023/08/15 07:44:21;;;;;;;6.20;4.00;;;24.40;99.90;;;;;;5070876;28;20028;-80
2023/08/15 07:46:46;;;;;;;8.15;4.13;;;24.60;99.90;;;;;;5069972;28;20021;-78
2023/08/15 07:49:12;;;;;;;5.07;3.78;;;24.80;99.90;;;;;;5070842;28;20037;-80
2023/08/15 07:51:38;;;;;;;3.47;3.17;;;25.00;99.90;;;;;;5070766;28;20165;-77
2023/08/15 07:54:04;;;;;;;4.22;3.92;;;25.10;99.90;;;;;;5070995;28;20075;-77
2023/08/15 07:56:31;;;;;;;4.45;3.92;;;25.20;98.40;;;;;;5070245;28;20051;-81
2023/08/15 07:58:57;;;;;;;5.35;4.00;;;25.30;99.50;;;;;;5071536;28;20029;-80
2023/08/15 08:01:22;;;;;;;4.47;3.95;;;25.40;99.50;;;;;;5072613;28;20020;-83
2023/08/15 08:03:48;;;;;;;4.35;3.95;;;25.50;99.70;;;;;;5072459;28;20025;-80
2023/08/15 08:06:14;;;;;;;4.10;3.70;;;25.70;98.90;;;;;;5072670;28;20017;-79
2023/08/15 08:08:39;;;;;;;4.32;3.92;;;25.80;97.70;;;;;;5070501;28;20504;-79
2023/08/15 08:11:05;;;;;;;5.20;3.72;;;25.90;98.50;;;;;;5070688;28;20382;-79
2023/08/15 08:13:31;;;;;;;5.22;3.90;;;26.10;98.50;;;;;;5070533;28;20021;-79
2023/08/15 08:15:56;;;;;;;3.80;3.50;;;26.20;96.90;;;;;;5070738;28;20032;-80
2023/08/15 08:18:22;;;;;;;5.80;4.32;;;26.40;97.20;;;;;;5071517;28;20024;-79
2023/08/15 08:20:48;;;;;;;6.20;3.90;;;26.50;98.00;;;;;;5070540;28;20020;-79
2023/08/15 08:23:13;;;;;;;4.07;3.50;;;26.70;97.20;;;;;;5070403;28;20051;-81
2023/08/15 08:25:39;;;;;;;4.22;3.80;;;26.70;96.80;;;;;;5070524;28;20032;-80
2023/08/15 08:28:05;;;;;;;4.22;3.83;;;26.80;96.90;;;;;;5070268;28;20036;-80
2023/08/15 08:30:31;;;;;;;5.75;3.33;;;26.90;96.30;;;;;;5070583;28;20039;-80
2023/08/15 08:32:57;;;;;;;4.15;3.42;;;27.00;95.00;;;;;;5070322;28;20025;-80
2023/08/15 08:35:23;;;;;;;4.22;3.65;;;27.00;94.20;;;;;;5070319;28;20119;-78
2023/08/15 08:37:48;;;;;;;4.15;2.75;;;27.10;92.60;;;;;;5070124;28;20035;-79
2023/08/15 08:40:15;;;;;;;4.22;2.90;;;27.20;92.90;;;;;;5071532;28;20047;-79
2023/08/15 08:42:41;;;;;;;3.10;2.80;;;27.30;91.80;;;;;;5070218;28;20021;-80
2023/08/15 08:45:09;;;;;;;3.70;3.40;;;27.40;90.30;;;;;;5071502;28;20032;-80
2023/08/15 08:47:41;;;;;;;5.25;3.42;;;27.40;89.30;;;;;;5070806;28;20021;-80
2023/08/15 08:50:11;;;;;;;3.53;2.60;;;27.50;87.60;;;;;;5073885;28;20075;-80
2023/08/15 08:52:49;;;;;;;2.50;2.30;;;27.60;84.80;;;;;;5073887;28;20078;-78
2023/08/15 08:55:19;;;;;;;5.00;3.45;;;27.50;79.40;;;;;;5074083;28;20442;-79
2023/08/15 08:57:49;;;;;;;3.03;2.58;;;27.70;84.60;;;;;;5073570;28;20494;-81
2023/08/15 09:00:16;;;;;;;3.78;2.38;;;27.80;81.70;;;;;;5075049;28;20024;-79
2023/08/15 09:02:43;;;;;;;3.05;2.67;;;27.90;76.60;;;;;;5073737;28;20415;-80
2023/08/15 09:05:09;;;;;;;2.60;2.40;;;28.10;74.00;;;;;;5074927;28;20048;-80
2023/08/15 09:07:35;;;;;;;2.60;2.40;;;28.20;73.80;;;;;;5073466;28;20021;-78
2023/08/15 09:10:01;;;;;;;2.58;2.10;;;28.40;74.10;;;;;;5073676;28;20047;-81
2023/08/15 09:12:40;;;;;;;2.90;2.33;;;28.50;70.90;;;;;;5074877;28;20574;-78
2023/08/15 09:15:07;;;;;;;2.97;2.13;;;28.50;69.90;;;;;;5073461;28;20082;-79
2023/08/15 09:17:33;;;;;;;4.30;2.20;;;28.60;68.60;;;;;;5073262;28;20024;-80
2023/08/15 09:20:10;;;;;;;5.75;3.05;;;28.60;66.80;;;;;;5073408;28;20036;-81
2023/08/15 09:22:38;;;;;;;2.28;2.08;;;28.70;69.90;;;;;;5074577;28;20020;-81
2023/08/15 09:25:04;;;;;;;4.20;2.33;;;28.80;68.50;;;;;;5074452;28;20044;-80
2023/08/15 09:27:30;;;;;;;1.98;1.88;;;29.00;67.30;;;;;;5072999;28;20081;-79
2023/08/15 09:29:55;;;;;;;2.22;2.03;;;29.00;69.10;;;;;;5074527;28;20535;-81
2023/08/15 09:32:21;;;;;;;3.75;2.45;;;29.10;66.50;;;;;;5074652;28;20031;-81
2023/08/15 09:34:47;;;;;;;2.70;2.30;;;29.10;66.90;;;;;;5073061;28;20025;-80
2023/08/15 09:37:13;;;;;;;5.05;2.65;;;29.10;67.60;;;;;;5074104;28;20321;-78
2023/08/15 09:39:39;;;;;;;2.50;2.30;;;29.20;66.00;;;;;;5074292;28;20024;-81
2023/08/15 09:42:05;;;;;;;2.00;1.75;;;29.00;63.90;;;;;;5073080;28;20025;-79
2023/08/15 09:44:34;;;;;;;2.45;2.25;;;29.10;66.00;;;;;;5073229;28;20035;-80
2023/08/15 09:47:01;;;;;;;2.60;2.40;;;29.00;68.10;;;;;;5072603;28;20532;-79
2023/08/15 09:49:28;;;;;;;3.90;2.45;;;29.10;69.00;;;;;;5074098;28;20028;-80
2023/08/15 09:51:56;;;;;;;4.47;2.50;;;29.30;70.90;;;;;;5074392;28;20031;-78
2023/08/15 09:54:24;;;;;;;3.40;2.35;;;29.20;70.00;;;;;;5074026;28;20027;-81
2023/08/15 09:56:50;;;;;;;4.68;2.47;;;29.40;69.30;;;;;;5072496;28;20540;-80
2023/08/15 09:59:15;;;;;;;3.25;2.67;;;29.50;67.60;;;;;;5073121;28;20024;-79
2023/08/15 10:01:41;;;;;;;2.47;2.28;;;29.50;67.40;;;;;;5072695;28;20112;-79
2023/08/15 10:04:11;;;;;;;3.75;2.30;;;29.50;66.00;;;;;;5072623;28;20020;-80
2023/08/15 10:06:38;;;;;;;4.13;2.70;;;29.50;63.90;;;;;;5072426;28;20024;-80
2023/08/15 10:09:05;;;;;;;3.22;2.70;;;29.50;66.60;;;;;;5073672;28;20492;-79
2023/08/15 10:11:38;;;;;;;3.83;2.70;;;29.40;63.80;;;;;;5073762;28;20047;-79
2023/08/15 10:14:04;;;;;;;5.38;2.95;;;29.40;67.00;;;;;;5072603;28;20020;-79
2023/08/15 10:16:30;;;;;;;10.43;2.95;;;29.50;64.20;;;;;;5073369;28;20039;-81
2023/08/15 10:18:59;;;;;;;3.05;2.63;;;29.60;61.30;;;;;;5072410;28;20111;-79
2023/08/15 10:21:26;;;;;;;2.88;2.30;;;29.70;64.30;;;;;;5073562;28;20470;-81
2023/08/15 10:23:56;;;;;;;3.85;2.70;;;29.90;64.80;;;;;;5072152;28;20039;-79
2023/08/15 10:26:22;;;;;;;2.50;2.25;;;29.90;64.20;;;;;;5071966;28;20068;-80
2023/08/15 10:28:48;;;;;;;2.70;2.50;;;29.90;66.10;;;;;;5072093;28;20029;-80
2023/08/15 10:31:33;;;;;;;2.38;2.17;;;29.90;62.20;;;;;;5072213;28;20499;-80
2023/08/15 10:33:58;;;;;;;3.30;2.70;;;30.00;63.20;;;;;;5073382;28;20389;-81
2023/08/15 10:36:24;;;;;;;3.08;2.50;;;29.80;62.80;;;;;;5071618;28;20040;-80
2023/08/15 10:38:52;;;;;;;2.63;2.42;;;29.70;63.30;;;;;;5071886;28;20028;-80
2023/08/15 10:41:19;;;;;;;2.75;2.30;;;29.50;64.30;;;;;;5071881;28;20027;-79
2023/08/15 10:43:50;;;;;;;2.67;2.47;;;29.60;63.90;;;;;;5071699;28;20036;-81
2023/08/15 10:46:25;;;;;;;2.58;2.38;;;29.50;63.00;;;;;;5071616;28;20017;-81
2023/08/15 10:48:58;;;;;;;4.00;2.30;;;29.50;63.90;;;;;;5071831;28;20024;-79
2023/08/15 10:51:26;;;;;;;3.40;2.42;;;29.60;64.80;;;;;;5071674;28;20016;-78
2023/08/15 10:54:03;;;;;;;3.65;2.50;;;29.70;58.10;;;;;;5073045;28;20055;-80
2023/08/15 10:56:30;;;;;;;5.07;2.22;;;29.80;60.10;;;;;;5072489;28;20533;-78
2023/08/15 10:58:57;;;;;;;3.05;2.10;;;29.80;62.10;;;;;;5071663;28;20028;-80
2023/08/15 11:01:25;;;;;;;3.10;2.25;;;30.00;62.90;;;;;;5071366;28;20115;-80
2023/08/15 11:03:53;;;;;;;2.90;2.60;;;30.00;59.00;;;;;;5071608;28;20611;-80
2023/08/15 11:06:19;;;;;;;3.00;2.70;;;30.10;61.50;;;;;;5071141;28;20025;-79
2023/08/15 11:08:57;;;;;;;2.15;1.95;;;30.10;62.30;;;;;;5071419;28;20020;-80
2023/08/15 11:11:23;;;;;;;2.60;2.40;;;30.30;60.10;;;;;;5071418;28;20047;-80
2023/08/15 11:13:50;;;;;;;1.90;1.80;;;30.20;60.90;;;;;;5071402;28;20498;-80
2023/08/15 11:16:21;;;;;;;2.42;2.17;;;30.20;59.60;;;;;;5072173;28;20037;-77
2023/08/15 11:18:48;;;;;;;2.50;2.30;;;30.30;59.80;;;;;;5072560;28;20028;-80
2023/08/15 11:21:15;;;;;;;2.80;2.45;;;30.10;60.40;;;;;;5072357;28;20033;-80
2023/08/15 11:23:42;;;;;;;3.03;2.58;;;30.00;60.10;;;;;;5072340;28;20479;-78
2023/08/15 11:26:09;;;;;;;2.45;2.25;;;29.90;58.50;;;;;;5072426;28;20086;-78
2023/08/15 11:28:35;;;;;;;2.65;2.13;;;29.90;61.70;;;;;;5072109;28;20382;-78
2023/08/15 11:31:05;;;;;;;2.33;2.13;;;30.00;61.50;;;;;;5071078;28;20021;-79
2023/08/15 11:33:31;;;;;;;2.50;2.00;;;30.20;64.30;;;;;;5072297;28;20046;-80
2023/08/15 11:36:01;;;;;;;2.58;2.38;;;30.30;59.30;;;;;;5070813;28;20085;-78
2023/08/15 11:38:31;;;;;;;3.42;2.28;;;30.20;59.90;;;;;;5070717;28;20067;-80
2023/08/15 11:40:58;;;;;;;4.20;2.30;;;30.20;60.80;;;;;;5070999;28;20031;-78
2023/08/15 11:43:25;;;;;;;2.28;2.08;;;30.40;62.10;;;;;;5070849;28;20111;-78
2023/08/15 11:45:51;;;;;;;2.65;2.25;;;30.30;60.60;;;;;;5070748;28;20045;-80
2023/08/15 11:48:17;;;;;;;2.72;2.53;;;30.20;60.30;;;;;;5070702;28;20028;-79
2023/08/15 11:50:43;;;;;;;3.08;2.60;;;30.20;62.40;;;;;;5072165;28;20555;-80
2023/08/15 11:53:11;;;;;;;3.53;2.17;;;30.30;59.50;;;;;;5070796;28;20028;-78
2023/08/15 11:55:39;;;;;;;2.47;2.28;;;30.30;59.00;;;;;;5070688;28;20521;-80
2023/08/15 11:58:30;;;;;;;2.25;1.98;;;30.20;59.60;;;;;;5070431;28;20024;-79
2023/08/15 12:01:00;;;;;;;5.80;2.25;;;30.30;60.20;;;;;;5070982;28;20025;-79
2023/08/15 12:03:27;;;;;;;4.72;2.15;;;30.30;59.60;;;;;;5071991;28;20098;-80
2023/08/15 12:05:57;;;;;;;2.97;2.33;;;30.20;59.70;;;;;;5070485;28;20123;-80
2023/08/15 12:08:26;;;;;;;2.50;2.30;;;30.30;59.40;;;;;;5070329;28;20103;-78
2023/08/15 12:11:00;;;;;;;4.80;2.22;;;30.30;59.00;;;;;;5071897;28;20482;-79
2023/08/15 12:13:33;;;;;;;8.75;2.28;;;30.30;57.20;;;;;;5070782;28;20405;-79
2023/08/15 12:16:01;;;;;;;2.22;2.03;;;30.30;57.90;;;;;;5070456;28;20432;-82
2023/08/15 12:18:27;;;;;;;3.83;2.65;;;30.20;57.10;;;;;;5071011;28;20025;-82
2023/08/15 12:20:53;;;;;;;3.55;2.40;;;30.40;57.60;;;;;;5070936;28;20055;-82
2023/08/15 12:23:18;;;;;;;4.97;2.28;;;30.60;58.50;;;;;;5074409;28;20056;-81
2023/08/15 12:25:44;;;;;;;2.58;2.25;;;30.40;57.60;;;;;;5075854;28;20020;-80
2023/08/15 12:28:10;;;;;;;6.15;2.35;;;30.40;59.50;;;;;;5074342;28;20073;-80
2023/08/15 12:30:35;;;;;;;2.15;2.05;;;30.50;58.10;;;;;;5074641;28;20021;-79
2023/08/15 12:33:01;;;;;;;6.03;2.50;;;30.20;57.80;;;;;;5074469;28;20027;-79
2023/08/15 12:35:28;;;;;;;2.47;2.25;;;30.10;58.50;;;;;;5073970;28;20036;-80
2023/08/15 12:37:54;;;;;;;2.72;2.53;;;30.20;58.40;;;;;;5075316;28;20025;-81
2023/08/15 12:40:20;;;;;;;6.57;2.28;;;30.30;58.00;;;;;;5074371;28;20115;-80
2023/08/15 12:42:45;;;;;;;3.05;2.45;;;30.40;56.70;;;;;;5075298;28;20114;-78
2023/08/15 12:45:11;;;;;;;8.82;2.00;;;30.30;58.80;;;;;;5074100;28;20074;-78